首页
METAR-TAF:

METAR-TAF

机场 :

劍橋, 英格兰

纬度: 52-12N, 经度: 000-11E, 海拔: 15米

当前天气观测

该预报发布于34分钟前的11:50 UTC
风速3节,风向多变
温度 5°C
湿度 81%
气压 1017 hPa
能見度: 9000
多云层高于3000英尺

METAR: EGSC 191150Z VRB03KT 9000 BKN030 05/02 Q1017

时间: 12:24 (12:24 UTC)

预报

该预报发布于1小时和25分钟前的10:59 UTC
预报有效从19日的 12点(UTC)到 19日的 21点(UTC)
风速4节,风向
能见度10公里或以上
散云层高于4000英尺
几率 30% :
短暂存在
从 19日的 12点(UTC)到 19日的 21点(UTC)
能見度: 8000

TAF: EGSC 191059Z 1912/1921 17004KT 9999 SCT040 PROB30 TEMPO 1912/1921 8000

超过4000个机场的气象观测和天气预报(METAR&TAF报告)。

可查询的气象台以黄色和红色小点在地图上表示。

将鼠标移到小点上方,可查看气象台名称。

然后点击查看天气观测和预报。

如需切换地图:点击带黑十字的绿色按钮放大地图;点击带横线的绿色按钮缩小地图;或者点击绿色箭头查看邻近地区的地图。


METAR-TAF: